Ohio State University (OSU)

 

Airport Diagram
Current Weather/Forecast (VFR Conditions)
METAR KOSU 240003Z 29007KT 8SM VCTS -RA BKN055 OVC070 21/18 A2993 RMK AO2 LTG DSNT ALQDS TSE2357 P0001 T02060178
TAF

Airport Information

All Charts
General
Chart Name View
AIRPORT DIAGRAM
AIRPORT DIAGRAM
TAKEOFF MINIMUMS
ALTERNATE MINIMUMS
TAKEOFF MINIMUMS
ALTERNATE MINIMUMS
HOT SPOT
HOT SPOT

Arrivals
Chart Name Download
BREMN FIVE
BREMN FIVE, CONT.1
GAILL THREE (RNAV)
GUNNE FOUR
GUNNE FOUR, CONT.1
BREMN FIVE
BREMN FIVE, CONT.1
GAILL THREE (RNAV)
GUNNE FOUR
GUNNE FOUR, CONT.1

Approaches
Chart Name Download
ILS OR LOC RWY 09R
RNAV (GPS) RWY 09R
RNAV (GPS) RWY 27L
NDB RWY 09R
ILS OR LOC RWY 09R
RNAV (GPS) RWY 09R
RNAV (GPS) RWY 27L
NDB RWY 09R


Airport Statistics
Departures Arrivals Local
All Collected Stats since June 2016: 73 35 9
2020 Stats: 33 11 3
October Stats: 6 3 0

Inbound Traffic (Arrivals) - 0

No inbound traffic.


Outbound Traffic (Departures) - 0

No outbound traffic.


Local Traffic (Pattern) - 0

No local traffic.